createdAt,value
2018-07-12T00:01:59.627Z,1.30
2018-07-12T00:04:26.238Z,0.73
2018-07-12T00:06:52.797Z,0.80
2018-07-12T00:09:19.385Z,1.17
2018-07-12T00:11:45.974Z,1.30
2018-07-12T00:14:12.546Z,1.40
2018-07-12T00:16:39.120Z,1.60
2018-07-12T00:19:05.705Z,1.10
2018-07-12T00:21:32.279Z,0.97
2018-07-12T00:23:58.862Z,0.90
2018-07-12T00:26:25.558Z,1.83
2018-07-12T00:28:52.100Z,2.27
2018-07-12T00:31:18.673Z,2.47
2018-07-12T00:33:45.357Z,1.73
2018-07-12T00:36:11.864Z,2.40
2018-07-12T00:38:38.404Z,3.40
2018-07-12T00:41:04.998Z,3.27
2018-07-12T00:43:31.577Z,3.67
2018-07-12T00:45:58.120Z,3.17
2018-07-12T00:48:24.664Z,2.40
2018-07-12T00:50:51.252Z,2.30
2018-07-12T00:53:17.821Z,3.00
2018-07-12T00:55:44.381Z,4.27
2018-07-12T00:58:10.957Z,3.00
2018-07-12T01:00:37.513Z,3.10
2018-07-12T01:03:04.057Z,5.77
2018-07-12T01:08:08.262Z,3.93
2018-07-12T01:10:34.816Z,3.50
2018-07-12T01:13:01.390Z,3.43
2018-07-12T01:15:27.962Z,5.67
2018-07-12T01:17:55.020Z,3.63
2018-07-12T01:20:21.576Z,3.03
2018-07-12T01:22:48.200Z,3.27
2018-07-12T01:25:14.758Z,2.93
2018-07-12T01:27:41.340Z,5.03
2018-07-12T01:30:07.902Z,3.23
2018-07-12T01:32:38.140Z,3.40
2018-07-12T01:35:04.706Z,3.17
2018-07-12T01:37:31.268Z,3.47
2018-07-12T01:39:57.838Z,2.73
2018-07-12T01:42:24.431Z,2.77
2018-07-12T01:44:51.012Z,4.17
2018-07-12T01:47:17.589Z,3.27
2018-07-12T01:49:44.157Z,3.00
2018-07-12T01:52:10.743Z,4.77
2018-07-12T01:54:37.324Z,4.63
2018-07-12T01:57:03.866Z,7.20
2018-07-12T01:59:30.414Z,3.53
2018-07-12T02:01:56.985Z,5.53
2018-07-12T02:04:23.571Z,4.03
2018-07-12T02:06:50.144Z,2.70
2018-07-12T02:09:16.688Z,3.00
2018-07-12T02:11:43.244Z,3.10
2018-07-12T02:14:09.805Z,4.23
2018-07-12T02:16:36.344Z,3.57
2018-07-12T02:19:02.904Z,3.53
2018-07-12T02:21:29.465Z,4.17
2018-07-12T02:23:56.035Z,5.47
2018-07-12T02:26:22.613Z,4.87
2018-07-12T02:28:49.224Z,4.17
2018-07-12T02:31:15.776Z,5.57
2018-07-12T02:33:45.926Z,3.77
2018-07-12T02:36:12.529Z,4.13
2018-07-12T02:38:39.084Z,3.37
2018-07-12T02:41:05.675Z,5.17
2018-07-12T02:43:32.688Z,3.10
2018-07-12T02:45:59.230Z,4.73
2018-07-12T02:48:25.985Z,2.90
2018-07-12T02:50:52.518Z,3.67
2018-07-12T02:53:19.633Z,4.93
2018-07-12T02:55:46.196Z,3.93
2018-07-12T02:58:12.803Z,3.23
2018-07-12T03:00:39.341Z,2.30
2018-07-12T03:03:05.950Z,4.20
2018-07-12T03:05:32.489Z,3.73
2018-07-12T03:07:59.098Z,2.40
2018-07-12T03:10:25.741Z,2.60
2018-07-12T03:12:52.345Z,2.57
2018-07-12T03:15:18.921Z,5.07
2018-07-12T03:17:45.648Z,2.80
2018-07-12T03:20:12.677Z,3.40
2018-07-12T03:22:39.269Z,2.73
2018-07-12T03:25:05.960Z,1.93
2018-07-12T03:27:32.637Z,1.87
2018-07-12T03:29:59.198Z,1.40
2018-07-12T03:32:25.812Z,2.40
2018-07-12T03:34:52.377Z,1.50
2018-07-12T03:37:18.950Z,2.10
2018-07-12T03:39:45.540Z,3.63
2018-07-12T03:42:12.098Z,2.87
2018-07-12T03:44:38.623Z,1.97
2018-07-12T03:47:05.275Z,2.20
2018-07-12T03:49:31.900Z,3.67
2018-07-12T03:51:58.457Z,2.50
2018-07-12T03:54:25.039Z,3.67
2018-07-12T03:56:51.617Z,4.50
2018-07-12T03:59:18.206Z,2.10
2018-07-12T04:01:44.800Z,1.80
2018-07-12T04:04:11.417Z,1.27
2018-07-12T04:06:38.236Z,1.57
2018-07-12T04:09:05.229Z,4.03
2018-07-12T04:11:31.949Z,2.53
2018-07-12T04:13:58.540Z,2.10
2018-07-12T04:16:25.116Z,1.90
2018-07-12T04:18:51.701Z,2.80
2018-07-12T04:21:18.430Z,3.30
2018-07-12T04:23:45.166Z,3.10
2018-07-12T04:26:11.737Z,2.77
2018-07-12T04:28:38.329Z,2.50
2018-07-12T04:31:06.049Z,1.73
2018-07-12T04:33:32.640Z,2.70
2018-07-12T04:35:59.257Z,3.73
2018-07-12T04:38:25.836Z,3.17
2018-07-12T04:40:52.936Z,2.67
2018-07-12T04:43:19.535Z,2.07
2018-07-12T04:45:46.089Z,1.30
2018-07-12T04:48:12.772Z,1.50
2018-07-12T04:50:39.478Z,1.90
2018-07-12T04:53:06.033Z,1.60
2018-07-12T04:55:32.597Z,2.53
2018-07-12T04:57:59.158Z,3.07
2018-07-12T05:00:25.732Z,5.43
2018-07-12T05:02:52.336Z,1.73
2018-07-12T05:05:18.921Z,3.63
2018-07-12T05:07:45.563Z,2.70
2018-07-12T05:10:12.151Z,1.70
2018-07-12T05:12:38.708Z,2.07
2018-07-12T05:15:05.366Z,2.23
2018-07-12T05:17:31.936Z,2.23
2018-07-12T05:19:58.509Z,2.17
2018-07-12T05:22:25.081Z,1.87
2018-07-12T05:24:51.646Z,2.27
2018-07-12T05:27:18.210Z,2.40
2018-07-12T05:29:44.805Z,3.77
2018-07-12T05:32:11.494Z,6.60
2018-07-12T05:34:38.075Z,4.10
2018-07-12T05:37:06.205Z,3.70
2018-07-12T05:39:33.817Z,4.63
2018-07-12T05:42:01.430Z,4.47
2018-07-12T05:44:29.361Z,7.60
2018-07-12T05:46:57.072Z,4.13
2018-07-12T05:49:25.030Z,3.73
2018-07-12T05:51:52.709Z,3.40
2018-07-12T05:54:20.637Z,3.50
2018-07-12T05:56:48.376Z,6.47
2018-07-12T05:59:16.463Z,4.80
2018-07-12T06:01:55.808Z,4.00
2018-07-12T06:04:23.493Z,5.43
2018-07-12T06:06:51.058Z,4.33
2018-07-12T06:09:18.634Z,6.33
2018-07-12T06:11:46.253Z,7.40
2018-07-12T06:14:13.980Z,8.17
2018-07-12T06:16:41.589Z,10.23
2018-07-12T06:19:09.240Z,10.37
2018-07-12T06:21:36.833Z,10.73
2018-07-12T06:24:04.650Z,9.13
2018-07-12T06:26:32.269Z,8.50
2018-07-12T06:28:59.887Z,11.70
2018-07-12T06:31:27.772Z,10.03
2018-07-12T06:33:55.527Z,11.17
2018-07-12T06:36:23.144Z,12.37
2018-07-12T06:38:50.749Z,13.83
2018-07-12T06:41:18.354Z,11.37
2018-07-12T06:43:45.948Z,13.47
2018-07-12T06:46:13.689Z,11.00
2018-07-12T06:48:41.373Z,12.23
2018-07-12T06:51:08.972Z,10.07
2018-07-12T06:53:36.553Z,11.43
2018-07-12T06:56:04.149Z,11.40
2018-07-12T06:58:31.752Z,12.33
2018-07-12T07:00:59.366Z,11.00
2018-07-12T07:03:27.063Z,13.70
2018-07-12T07:05:54.621Z,11.60
2018-07-12T07:08:22.267Z,10.27
2018-07-12T07:10:49.882Z,10.57
2018-07-12T07:13:17.561Z,14.17
2018-07-12T07:15:45.192Z,12.37
2018-07-12T07:18:12.770Z,13.50
2018-07-12T07:20:40.456Z,11.87
2018-07-12T07:23:08.076Z,10.83
2018-07-12T07:25:35.696Z,10.87
2018-07-12T07:28:03.314Z,10.70
2018-07-12T07:30:30.887Z,11.90
2018-07-12T07:32:58.497Z,9.33
2018-07-12T07:35:26.145Z,8.50
2018-07-12T07:37:53.738Z,13.70
2018-07-12T07:40:21.345Z,10.90
2018-07-12T07:42:49.017Z,9.07
2018-07-12T07:45:16.657Z,8.17
2018-07-12T07:47:44.298Z,8.40
2018-07-12T07:50:11.877Z,8.30
2018-07-12T07:52:39.521Z,9.57
2018-07-12T07:55:07.121Z,7.20
2018-07-12T07:57:34.740Z,8.73
2018-07-12T08:00:02.384Z,7.73
2018-07-12T08:02:29.912Z,8.53
2018-07-12T08:04:57.512Z,9.17
2018-07-12T08:07:25.120Z,9.37
2018-07-12T08:09:52.741Z,9.20
2018-07-12T08:12:20.368Z,6.70
2018-07-12T08:14:48.201Z,5.83
2018-07-12T08:17:16.425Z,9.63
2018-07-12T08:19:44.418Z,8.20
2018-07-12T08:22:12.806Z,6.40
2018-07-12T08:24:40.964Z,9.00
2018-07-12T08:27:08.720Z,7.40
2018-07-12T08:29:36.309Z,7.47
2018-07-12T08:32:04.496Z,6.87
2018-07-12T08:34:32.349Z,6.43
2018-07-12T08:36:59.978Z,6.97
2018-07-12T08:39:27.694Z,5.90
2018-07-12T08:41:55.506Z,6.00
2018-07-12T08:44:23.070Z,5.00
2018-07-12T08:46:50.679Z,6.23
2018-07-12T08:49:18.237Z,5.50
2018-07-12T08:51:46.225Z,5.80
2018-07-12T08:54:14.035Z,5.63
2018-07-12T08:56:42.100Z,4.90
2018-07-12T08:59:09.705Z,4.60
2018-07-12T09:01:37.495Z,6.63
2018-07-12T09:04:05.185Z,11.57
2018-07-12T09:06:32.809Z,4.27
2018-07-12T09:09:00.402Z,7.10
2018-07-12T09:11:28.057Z,6.33
2018-07-12T09:13:55.669Z,6.07
2018-07-12T09:16:23.304Z,7.37
2018-07-12T09:18:50.849Z,5.97
2018-07-12T09:21:18.441Z,5.63
2018-07-12T09:23:46.057Z,4.00
2018-07-12T09:26:13.694Z,8.67
2018-07-12T09:28:41.281Z,7.60
2018-07-12T09:31:08.987Z,8.30
2018-07-12T09:33:36.707Z,6.30
2018-07-12T09:36:04.320Z,6.30
2018-07-12T09:38:50.953Z,4.53
2018-07-12T09:41:19.520Z,4.80
2018-07-12T09:43:47.716Z,4.00
2018-07-12T09:46:16.610Z,7.23
2018-07-12T09:48:45.493Z,3.93
2018-07-12T09:51:13.757Z,4.33
2018-07-12T09:53:42.540Z,4.20
2018-07-12T09:56:10.290Z,5.30
2018-07-12T09:58:37.779Z,3.70
2018-07-12T10:01:11.153Z,2.90
2018-07-12T10:03:46.271Z,5.60
2018-07-12T10:06:19.756Z,4.60
2018-07-12T10:08:52.740Z,5.13
2018-07-12T10:11:26.613Z,11.30
2018-07-12T10:13:59.828Z,4.23
2018-07-12T10:16:33.219Z,5.77
2018-07-12T10:19:00.822Z,5.23
2018-07-12T10:21:28.462Z,6.90
2018-07-12T10:23:56.072Z,3.10
2018-07-12T10:26:23.656Z,6.27
2018-07-12T10:28:51.315Z,3.93
2018-07-12T10:31:19.160Z,4.53
2018-07-12T10:33:46.793Z,3.23
2018-07-12T10:36:14.409Z,2.70
2018-07-12T10:38:42.011Z,3.83
2018-07-12T10:41:09.653Z,3.40
2018-07-12T10:43:37.247Z,3.03
2018-07-12T10:46:04.881Z,2.27
2018-07-12T10:48:32.510Z,3.50
2018-07-12T10:51:00.086Z,2.10
2018-07-12T10:53:27.734Z,2.00
2018-07-12T10:55:55.324Z,2.40
2018-07-12T10:58:22.924Z,1.60
2018-07-12T11:00:50.513Z,2.40
2018-07-12T11:03:18.144Z,2.37
2018-07-12T11:05:45.816Z,2.43
2018-07-12T11:08:13.458Z,2.23
2018-07-12T11:10:41.109Z,2.67
2018-07-12T11:13:16.732Z,2.23
2018-07-12T11:15:45.231Z,3.17
2018-07-12T11:18:12.872Z,1.73
2018-07-12T11:20:40.625Z,3.60
2018-07-12T11:23:08.253Z,1.87
2018-07-12T11:25:35.870Z,1.80
2018-07-12T11:28:03.867Z,2.47
2018-07-12T11:30:31.741Z,2.33
2018-07-12T11:32:59.349Z,2.08
2018-07-12T11:35:26.933Z,1.70
2018-07-12T11:37:54.500Z,2.15
2018-07-12T11:40:22.111Z,2.10
2018-07-12T11:42:49.694Z,2.08
2018-07-12T11:45:17.365Z,1.62
2018-07-12T11:47:45.269Z,4.40
2018-07-12T11:50:13.020Z,2.35
2018-07-12T11:52:40.665Z,1.60
2018-07-12T11:55:08.253Z,2.20
2018-07-12T11:57:35.948Z,1.40
2018-07-12T12:00:03.933Z,3.62
2018-07-12T12:02:31.521Z,1.87
2018-07-12T12:04:59.136Z,1.70
2018-07-12T12:07:31.100Z,2.20
2018-07-12T12:09:58.798Z,2.67
2018-07-12T12:12:26.530Z,1.77
2018-07-12T12:14:54.172Z,2.67
2018-07-12T12:17:21.732Z,3.63
2018-07-12T12:19:53.216Z,3.63
2018-07-12T12:22:20.733Z,1.77
2018-07-12T12:24:48.357Z,3.43
2018-07-12T12:27:15.954Z,1.63
2018-07-12T12:29:43.589Z,2.70
2018-07-12T12:32:11.177Z,1.30
2018-07-12T12:34:39.849Z,3.12
2018-07-12T12:37:07.444Z,1.40
2018-07-12T12:39:35.021Z,1.32
2018-07-12T12:42:02.657Z,1.30
2018-07-12T12:44:30.261Z,1.95
2018-07-12T12:46:57.827Z,2.30
2018-07-12T12:49:25.421Z,1.40
2018-07-12T12:51:53.468Z,1.22
2018-07-12T12:54:21.060Z,2.20
2018-07-12T12:56:48.693Z,1.80
2018-07-12T12:59:16.297Z,2.20
2018-07-12T13:01:43.864Z,1.92
2018-07-12T13:04:11.468Z,1.15
2018-07-12T13:06:39.050Z,1.47
2018-07-12T13:09:06.713Z,2.00
2018-07-12T13:11:34.369Z,1.50
2018-07-12T13:14:01.979Z,1.42
2018-07-12T13:16:29.725Z,3.08
2018-07-12T13:18:57.645Z,1.67
2018-07-12T13:21:25.322Z,1.40
2018-07-12T13:23:52.903Z,2.10
2018-07-12T13:26:20.681Z,1.50
2018-07-12T13:28:48.368Z,1.30
2018-07-12T13:31:15.990Z,1.63
2018-07-12T13:33:43.585Z,1.47
2018-07-12T13:36:11.163Z,2.73
2018-07-12T13:38:38.840Z,1.60
2018-07-12T13:41:06.735Z,1.87
2018-07-12T13:43:34.374Z,1.50
2018-07-12T13:46:02.132Z,2.00
2018-07-12T13:48:29.721Z,2.50
2018-07-12T13:50:57.416Z,1.50
2018-07-12T13:53:25.216Z,1.67
2018-07-12T13:55:52.813Z,2.67
2018-07-12T13:58:20.412Z,3.40
2018-07-12T14:00:47.969Z,1.80
2018-07-12T14:03:15.632Z,1.03
2018-07-12T14:05:43.241Z,3.00
2018-07-12T14:08:10.841Z,1.00
2018-07-12T14:10:38.504Z,3.27
2018-07-12T14:13:06.172Z,1.33
2018-07-12T14:15:33.853Z,1.90
2018-07-12T14:18:01.555Z,1.30
2018-07-12T14:20:29.477Z,1.40
2018-07-12T14:22:58.225Z,1.60
2018-07-12T14:25:25.889Z,1.10
2018-07-12T14:27:53.537Z,1.30
2018-07-12T14:30:21.141Z,2.63
2018-07-12T14:32:48.759Z,2.73
2018-07-12T14:35:16.368Z,1.93
2018-07-12T14:37:44.049Z,1.50
2018-07-12T14:40:11.774Z,1.47
2018-07-12T14:42:39.348Z,1.40
2018-07-12T14:45:07.331Z,1.20
2018-07-12T14:47:34.944Z,1.50
2018-07-12T14:50:02.793Z,1.37
2018-07-12T14:52:34.380Z,1.00
2018-07-12T14:55:02.130Z,1.80
2018-07-12T14:57:29.946Z,1.80
2018-07-12T14:59:57.852Z,2.47
2018-07-12T15:02:25.562Z,1.33
2018-07-12T15:04:54.400Z,0.83
2018-07-12T15:07:21.946Z,2.00
2018-07-12T15:09:50.193Z,1.30
2018-07-12T15:12:18.013Z,1.00
2018-07-12T15:14:45.652Z,0.90
2018-07-12T15:17:13.261Z,4.53
2018-07-12T15:19:41.138Z,1.10
2018-07-12T15:22:12.432Z,1.03
2018-07-12T15:24:47.049Z,1.23
2018-07-12T15:27:15.828Z,2.93
2018-07-12T15:29:47.370Z,2.27
2018-07-12T15:32:20.929Z,0.90
2018-07-12T15:34:48.529Z,1.43
2018-07-12T15:37:17.507Z,1.10
2018-07-12T15:39:50.761Z,1.83
2018-07-12T15:42:21.643Z,1.33
2018-07-12T15:44:49.530Z,2.30
2018-07-12T15:47:24.845Z,1.00
2018-07-12T15:49:58.527Z,0.90
2018-07-12T15:52:26.513Z,3.27
2018-07-12T15:54:54.236Z,1.10
2018-07-12T15:57:21.897Z,1.77
2018-07-12T15:59:51.705Z,2.17
2018-07-12T16:02:19.726Z,1.27
2018-07-12T16:04:47.420Z,1.30
2018-07-12T16:07:15.137Z,1.10
2018-07-12T16:09:42.748Z,1.27
2018-07-12T16:12:10.385Z,1.00
2018-07-12T16:14:38.859Z,1.30
2018-07-12T16:17:10.452Z,0.80
2018-07-12T16:19:38.159Z,1.20
2018-07-12T16:22:06.089Z,1.27
2018-07-12T16:24:33.910Z,1.63
2018-07-12T16:27:01.548Z,1.00
2018-07-12T16:29:29.168Z,2.27
2018-07-12T16:31:57.133Z,1.10
2018-07-12T16:34:24.781Z,1.07
2018-07-12T16:36:52.428Z,1.57
2018-07-12T16:39:20.052Z,1.33
2018-07-12T16:41:47.671Z,1.03
2018-07-12T16:44:15.412Z,0.90
2018-07-12T16:46:43.245Z,0.80
2018-07-12T16:49:10.918Z,1.57
2018-07-12T16:51:38.624Z,0.80
2018-07-12T16:54:06.394Z,1.23
2018-07-12T16:56:34.135Z,0.83
2018-07-12T16:59:02.063Z,1.17
2018-07-12T17:01:29.957Z,2.57
2018-07-12T17:03:57.543Z,2.00
2018-07-12T17:06:25.257Z,1.00
2018-07-12T17:08:53.074Z,1.97
2018-07-12T17:11:20.661Z,1.30
2018-07-12T17:13:48.766Z,1.30
2018-07-12T17:16:16.486Z,1.30
2018-07-12T17:18:44.128Z,1.30
2018-07-12T17:21:11.828Z,1.40
2018-07-12T17:23:39.521Z,5.40
2018-07-12T17:26:07.364Z,1.23
2018-07-12T17:28:35.370Z,1.67
2018-07-12T17:31:03.161Z,2.00
2018-07-12T17:33:30.807Z,1.73
2018-07-12T17:36:02.343Z,1.83
2018-07-12T17:38:30.357Z,2.80
2018-07-12T17:40:58.290Z,1.90
2018-07-12T17:43:26.210Z,1.40
2018-07-12T17:45:53.810Z,1.13
2018-07-12T17:48:22.540Z,1.10
2018-07-12T17:50:50.452Z,1.33
2018-07-12T17:53:18.167Z,2.97
2018-07-12T17:55:45.781Z,1.10
2018-07-12T17:58:13.480Z,1.40
2018-07-12T18:00:41.192Z,4.30
2018-07-12T18:03:08.986Z,1.47
2018-07-12T18:05:36.857Z,2.07
2018-07-12T18:08:05.045Z,1.50
2018-07-12T18:10:32.892Z,1.00
2018-07-12T18:13:00.693Z,2.10
2018-07-12T18:15:28.502Z,2.77
2018-07-12T18:17:56.281Z,0.90
2018-07-12T18:20:23.921Z,1.83
2018-07-12T18:22:52.028Z,1.43
2018-07-12T18:25:19.978Z,1.23
2018-07-12T18:27:47.937Z,3.00
2018-07-12T18:30:15.565Z,1.53
2018-07-12T18:32:43.353Z,1.23
2018-07-12T18:35:11.074Z,5.13
2018-07-12T18:37:39.901Z,4.07
2018-07-12T18:40:07.653Z,2.73
2018-07-12T18:42:35.288Z,1.23
2018-07-12T18:45:03.157Z,1.60
2018-07-12T18:47:31.598Z,1.37
2018-07-12T18:49:59.340Z,1.10
2018-07-12T18:52:28.089Z,1.40
2018-07-12T18:54:55.842Z,0.90
2018-07-12T18:57:23.531Z,1.27
2018-07-12T18:59:51.208Z,1.33
2018-07-12T19:02:18.833Z,1.20
2018-07-12T19:04:46.761Z,1.57
2018-07-12T19:07:14.364Z,2.73
2018-07-12T19:09:42.316Z,1.03
2018-07-12T19:12:10.219Z,1.20
2018-07-12T19:14:37.996Z,0.97
2018-07-12T19:17:06.353Z,1.27
2018-07-12T19:19:34.096Z,1.40
2018-07-12T19:22:01.740Z,3.03
2018-07-12T19:24:29.476Z,1.07
2018-07-12T19:26:57.177Z,1.33
2018-07-12T19:29:24.910Z,1.00
2018-07-12T19:31:52.565Z,1.57
2018-07-12T19:34:20.196Z,1.20
2018-07-12T19:36:47.898Z,2.93
2018-07-12T19:39:15.521Z,2.27
2018-07-12T19:41:43.173Z,1.73
2018-07-12T19:44:10.805Z,0.90
2018-07-12T19:46:38.504Z,1.50
2018-07-12T19:49:08.117Z,1.00
2018-07-12T19:51:35.784Z,1.23
2018-07-12T19:54:03.485Z,2.10
2018-07-12T19:56:34.469Z,1.20
2018-07-12T19:59:02.245Z,3.17
2018-07-12T20:01:29.865Z,1.83
2018-07-12T20:03:57.559Z,1.30
2018-07-12T20:06:25.339Z,3.37
2018-07-12T20:08:52.970Z,1.77
2018-07-12T20:11:20.578Z,6.10
2018-07-12T20:13:48.189Z,2.13
2018-07-12T20:16:15.845Z,2.00
2018-07-12T20:18:43.497Z,1.57
2018-07-12T20:21:11.242Z,1.60
2018-07-12T20:23:39.045Z,1.60
2018-07-12T20:26:06.956Z,1.00
2018-07-12T20:28:34.575Z,1.30
2018-07-12T20:31:02.185Z,0.93
2018-07-12T20:33:29.858Z,1.67
2018-07-12T20:35:57.481Z,2.03
2018-07-12T20:38:25.179Z,1.50
2018-07-12T20:40:52.850Z,0.93
2018-07-12T20:43:21.108Z,1.20
2018-07-12T20:45:49.262Z,1.20
2018-07-12T20:48:17.391Z,1.10
2018-07-12T20:50:45.243Z,1.07
2018-07-12T20:53:12.975Z,1.43
2018-07-12T20:55:40.585Z,0.93
2018-07-12T20:58:08.454Z,0.80
2018-07-12T21:00:36.094Z,1.20
2018-07-12T21:03:03.719Z,1.20
2018-07-12T21:05:31.362Z,0.90
2018-07-12T21:07:58.953Z,1.03
2018-07-12T21:10:26.634Z,0.97
2018-07-12T21:12:54.250Z,0.77
2018-07-12T21:15:21.949Z,1.30
2018-07-12T21:17:49.569Z,1.20
2018-07-12T21:20:17.197Z,1.30
2018-07-12T21:22:44.744Z,1.50
2018-07-12T21:25:12.380Z,1.80
2018-07-12T21:27:39.976Z,4.70
2018-07-12T21:30:09.449Z,1.50
2018-07-12T21:32:37.319Z,1.20
2018-07-12T21:35:05.606Z,1.30
2018-07-12T21:37:33.272Z,1.10
2018-07-12T21:40:01.071Z,2.10
2018-07-12T21:42:28.741Z,1.20
2018-07-12T21:44:56.349Z,1.03
2018-07-12T21:47:23.973Z,1.67
2018-07-12T21:49:51.533Z,1.43
2018-07-12T21:52:19.320Z,1.20
2018-07-12T21:54:47.434Z,2.10
2018-07-12T21:57:15.054Z,1.83
2018-07-12T21:59:42.704Z,1.60
2018-07-12T22:02:10.319Z,1.60
2018-07-12T22:04:37.916Z,1.93
2018-07-12T22:07:11.190Z,3.50
2018-07-12T22:09:39.083Z,1.97
2018-07-12T22:12:06.793Z,1.40
2018-07-12T22:14:34.385Z,6.33
2018-07-12T22:17:05.791Z,1.40
2018-07-12T22:19:33.389Z,1.40
2018-07-12T22:22:01.007Z,3.63
2018-07-12T22:24:28.608Z,2.03
2018-07-12T22:26:56.486Z,2.87
2018-07-12T22:29:24.104Z,1.83
2018-07-12T22:31:51.770Z,1.47
2018-07-12T22:34:20.392Z,3.47
2018-07-12T22:36:48.014Z,2.40
2018-07-12T22:39:15.645Z,1.47
2018-07-12T22:41:43.328Z,1.30
2018-07-12T22:44:10.956Z,1.70
2018-07-12T22:46:38.538Z,2.40
2018-07-12T22:49:06.251Z,2.53
2018-07-12T22:51:33.809Z,1.40
2018-07-12T22:54:01.411Z,1.90
2018-07-12T22:56:29.081Z,2.27
2018-07-12T22:58:56.708Z,1.67
2018-07-12T23:01:24.493Z,1.87
2018-07-12T23:03:52.128Z,2.40
2018-07-12T23:06:19.759Z,2.10
2018-07-12T23:08:47.370Z,2.47
2018-07-12T23:11:15.023Z,1.57
2018-07-12T23:13:42.862Z,1.60
2018-07-12T23:16:10.432Z,1.70
2018-07-12T23:18:38.959Z,1.73
2018-07-12T23:21:06.692Z,3.60
2018-07-12T23:23:34.390Z,1.60
2018-07-12T23:26:01.995Z,1.93
2018-07-12T23:28:29.628Z,2.00
2018-07-12T23:30:57.229Z,2.50
2018-07-12T23:33:24.848Z,2.80
2018-07-12T23:35:52.395Z,2.77
2018-07-12T23:38:20.021Z,2.20
2018-07-12T23:40:47.597Z,1.77
2018-07-12T23:43:15.257Z,2.03
2018-07-12T23:45:43.041Z,1.70
2018-07-12T23:48:10.670Z,3.77
2018-07-12T23:50:40.342Z,6.97
2018-07-12T23:53:07.948Z,4.43
2018-07-12T23:55:35.582Z,2.30
2018-07-12T23:58:03.182Z,2.20
